Time;durP1;ratioP1;P1;durP2;ratioP2;P2;SDS_P1;SDS_P2;PMS_P1;PMS_P2;Temp;Humidity;BMP_temperature;BMP_pressure;BME280_temperature;BME280_humidity;BME280_pressure;Samples;Min_cycle;Max_cycle;Signal;HPM_P1;HPM_P2
2021/04/12 00:01:19;;;;;;;2.70;2.50;;;9.50;63.90;;;8.75;46.85;94531.00;5017624;28;20188;-84
2021/04/12 00:04:04;;;;;;;4.45;2.78;;;9.50;64.10;;;8.74;46.94;94526.75;5017810;28;20243;-83
2021/04/12 00:06:44;;;;;;;5.32;2.45;;;9.40;64.60;;;8.72;46.73;94528.75;5017540;28;20713;-84
2021/04/12 00:09:29;;;;;;;3.08;2.45;;;9.50;64.70;;;8.70;46.20;94535.16;5035990;28;20199;-84
2021/04/12 00:12:16;;;;;;;3.05;2.58;;;9.40;64.30;;;8.65;46.00;94526.09;5034339;28;20223;-84
2021/04/12 00:14:56;;;;;;;4.13;2.47;;;9.30;64.40;;;8.62;46.30;94531.69;5017405;28;20220;-84
2021/04/12 00:17:35;;;;;;;3.65;2.60;;;9.30;64.40;;;8.59;46.25;94532.06;5026517;28;20239;-83
2021/04/12 00:20:16;;;;;;;3.85;2.80;;;9.30;64.30;;;8.58;46.61;94538.31;5050592;28;20393;-83
2021/04/12 00:22:56;;;;;;;2.83;2.50;;;9.30;63.80;;;8.55;46.82;94527.41;5033702;28;20220;-84
2021/04/12 00:25:57;;;;;;;3.17;2.85;;;9.20;64.60;;;8.49;46.58;94529.78;5057238;28;20188;-84
2021/04/12 00:28:35;;;;;;;3.55;2.50;;;9.20;64.70;;;8.47;46.69;94531.78;5033888;28;20226;-84
2021/04/12 00:31:10;;;;;;;3.97;2.80;;;9.20;64.70;;;8.44;46.67;94533.91;5037220;28;20637;-82
2021/04/12 00:33:49;;;;;;;3.28;2.53;;;9.20;64.40;;;8.39;46.84;94531.06;5037056;28;20646;-84
2021/04/12 00:36:37;;;;;;;2.92;2.63;;;9.20;64.50;;;8.35;47.08;94533.25;5050782;28;20223;-83
2021/04/12 00:39:18;;;;;;;4.53;2.70;;;9.20;65.10;;;8.34;47.13;94535.03;5009777;28;20201;-84
2021/04/12 00:42:02;;;;;;;2.72;2.45;;;9.10;65.00;;;8.30;46.98;94530.34;5033619;28;20212;-84
2021/04/12 00:45:10;;;;;;;4.32;2.60;;;9.00;64.60;;;8.25;47.36;94528.34;5017044;28;20204;-84
2021/04/12 00:48:29;;;;;;;3.75;2.80;;;9.00;64.90;;;8.20;47.07;94527.25;5021746;28;20232;-84
2021/04/12 00:51:18;;;;;;;5.68;2.55;;;9.00;65.20;;;8.15;47.12;94526.03;5033139;28;20568;-84
2021/04/12 00:54:22;;;;;;;4.10;2.60;;;8.90;64.30;;;8.13;47.45;94533.22;5033249;28;20288;-85
2021/04/12 00:57:17;;;;;;;4.72;2.78;;;8.90;64.40;;;8.00;47.57;94510.38;5049701;28;20694;-84
2021/04/12 01:00:28;;;;;;;3.03;2.53;;;8.80;65.40;;;8.04;47.38;94523.09;5033130;28;20562;-84
2021/04/12 01:03:26;;;;;;;7.45;2.70;;;8.80;65.50;;;8.01;47.17;94527.69;5033421;28;20226;-84
2021/04/12 01:06:00;;;;;;;3.22;2.78;;;8.80;65.40;;;7.98;47.26;94528.06;5049553;28;20193;-83
2021/04/12 01:08:55;;;;;;;3.63;2.90;;;8.70;65.00;;;7.96;47.45;94531.88;5049391;28;20279;-84
2021/04/12 01:11:46;;;;;;;4.85;3.00;;;8.70;65.60;;;7.93;47.65;94533.00;5052682;28;20253;-83
2021/04/12 01:14:50;;;;;;;4.90;2.80;;;8.60;65.50;;;7.91;48.03;94536.81;5034911;28;20223;-83
2021/04/12 01:17:58;;;;;;;2.88;2.63;;;8.70;65.60;;;7.89;47.71;94533.59;5049477;28;20228;-84
2021/04/12 01:21:08;;;;;;;3.55;2.78;;;8.60;65.90;;;7.85;47.79;94531.34;5049281;28;20200;-83
2021/04/12 01:23:56;;;;;;;3.17;2.75;;;8.60;65.90;;;7.81;47.63;94532.69;5033267;28;20275;-84
2021/04/12 01:27:03;;;;;;;3.42;2.67;;;8.60;65.70;;;7.75;47.68;94530.81;5033937;28;20197;-84
2021/04/12 01:30:16;;;;;;;4.45;2.90;;;8.50;65.60;;;7.73;47.95;94529.41;5048719;28;20690;-84
2021/04/12 01:33:50;;;;;;;3.97;3.03;;;8.50;65.50;;;7.70;48.26;94535.78;5049108;28;20240;-84
2021/04/12 01:36:52;;;;;;;6.22;2.78;;;8.50;65.80;;;7.66;48.39;94518.88;5022844;28;20266;-84
2021/04/12 01:40:15;;;;;;;5.47;2.88;;;8.40;65.70;;;7.63;48.27;94527.88;5048918;28;20184;-83
2021/04/12 01:43:24;;;;;;;3.85;3.08;;;8.40;66.00;;;7.58;48.34;94532.84;5048859;28;20271;-83
2021/04/12 01:46:11;;;;;;;4.55;2.70;;;8.40;66.10;;;7.60;48.34;94537.88;5032443;28;20216;-84
2021/04/12 01:49:06;;;;;;;4.82;2.97;;;8.40;65.70;;;7.53;48.37;94528.16;5031684;28;20205;-83
2021/04/12 01:51:41;;;;;;;3.78;2.72;;;8.30;66.30;;;7.53;48.29;94533.38;5035355;28;20241;-83
2021/04/12 01:54:45;;;;;;;4.45;2.95;;;8.30;65.30;;;7.50;48.48;94538.94;5051719;28;20219;-84
2021/04/12 01:57:35;;;;;;;3.90;2.75;;;8.30;66.50;;;7.49;48.33;94536.53;5051963;28;20723;-84
2021/04/12 02:00:04;;;;;;;3.13;2.60;;;8.30;66.60;;;7.48;48.31;94533.13;5033732;28;20544;-83
2021/04/12 02:03:00;;;;;;;3.53;3.10;;;8.20;66.10;;;7.46;48.38;94532.50;5052200;28;20298;-84
2021/04/12 02:06:03;;;;;;;3.90;2.72;;;8.20;65.60;;;7.40;48.03;94519.34;5051888;28;20195;-84
2021/04/12 02:08:58;;;;;;;3.83;2.80;;;8.20;66.70;;;7.40;48.49;94537.59;5019089;28;20216;-82
2021/04/12 02:11:34;;;;;;;3.35;2.53;;;8.10;66.50;;;7.40;48.58;94542.81;5047846;28;20197;-84
2021/04/12 02:14:59;;;;;;;4.75;2.72;;;8.10;66.80;;;7.38;48.49;94548.22;5048221;28;20235;-81
2021/04/12 02:17:55;;;;;;;4.22;3.20;;;8.10;66.90;;;7.35;48.63;94543.38;5050477;28;20220;-83
2021/04/12 02:20:58;;;;;;;5.30;3.30;;;8.10;67.00;;;7.35;48.58;94546.78;5068400;28;20203;-84
2021/04/12 02:23:48;;;;;;;4.90;3.10;;;8.00;66.80;;;7.36;48.82;94556.25;5051216;28;20777;-84
2021/04/12 02:26:32;;;;;;;3.58;2.72;;;8.00;66.90;;;7.29;49.17;94544.91;5051695;28;20203;-83
2021/04/12 02:29:27;;;;;;;6.90;3.33;;;8.10;66.70;;;7.29;49.21;94549.34;5035260;28;20204;-84
2021/04/12 02:32:15;;;;;;;4.03;2.97;;;8.00;66.90;;;7.27;48.87;94551.31;5039625;28;20232;-84
2021/04/12 02:34:51;;;;;;;3.63;3.00;;;8.00;66.90;;;7.27;48.95;94554.72;5034077;28;20212;-84
2021/04/12 02:37:39;;;;;;;6.20;3.17;;;8.00;66.70;;;7.22;49.17;94542.19;5043562;28;20227;-83
2021/04/12 02:41:01;;;;;;;4.45;3.20;;;8.00;67.40;;;7.19;49.58;94542.56;5031384;28;20195;-84
2021/04/12 02:44:15;;;;;;;5.20;3.10;;;8.00;67.20;;;7.16;50.00;94540.31;5031373;28;20221;-84
2021/04/12 02:47:01;;;;;;;3.35;2.97;;;7.90;68.40;;;7.15;49.45;94549.16;5045579;28;20277;-82
2021/04/12 02:50:00;;;;;;;3.33;2.90;;;7.90;66.30;;;7.13;49.75;94550.28;5044689;28;20204;-83
2021/04/12 02:52:57;;;;;;;4.05;2.70;;;7.90;67.40;;;7.09;49.33;94560.28;5041863;28;20219;-83
2021/04/12 02:56:12;;;;;;;3.88;3.28;;;7.80;67.20;;;7.02;50.24;94548.97;5049594;28;20204;-84
2021/04/12 02:59:04;;;;;;;3.22;2.88;;;7.80;67.70;;;7.03;50.04;94545.34;5044124;28;20202;-83
2021/04/12 03:02:14;;;;;;;3.72;3.22;;;7.80;67.30;;;6.99;50.60;94563.13;5011865;28;20238;-83
2021/04/12 03:04:54;;;;;;;5.10;2.88;;;7.80;67.60;;;6.98;50.14;94558.94;5024124;28;20219;-84
2021/04/12 03:07:56;;;;;;;4.93;3.15;;;7.70;67.20;;;6.96;50.53;94562.72;5028025;28;20721;-82
2021/04/12 03:10:37;;;;;;;2.83;2.53;;;7.70;66.80;;;6.96;50.02;94554.88;5036220;28;20287;-84
2021/04/12 03:13:52;;;;;;;3.95;2.92;;;7.70;67.40;;;6.93;50.23;94566.47;5034991;28;20223;-84
2021/04/12 03:17:02;;;;;;;3.70;3.08;;;7.70;67.70;;;6.92;49.91;94551.81;5040875;28;20258;-84
2021/04/12 03:19:51;;;;;;;3.50;2.70;;;7.70;67.80;;;6.93;50.00;94563.06;5025928;28;20291;-83
2021/04/12 03:22:34;;;;;;;3.90;2.80;;;7.60;67.70;;;6.93;50.05;94552.63;5039422;28;20232;-83
2021/04/12 03:25:32;;;;;;;4.05;3.20;;;7.60;67.80;;;6.91;50.52;94560.63;5041276;28;20192;-84
2021/04/12 03:28:39;;;;;;;4.40;3.10;;;7.60;67.80;;;6.96;50.42;94562.72;5043613;28;20213;-84
2021/04/12 03:31:18;;;;;;;3.47;2.63;;;7.60;67.50;;;7.00;50.40;94563.97;5050311;28;20223;-84
2021/04/12 03:34:07;;;;;;;3.13;2.78;;;7.60;67.00;;;7.05;50.42;94564.22;5033561;28;20227;-83
2021/04/12 03:37:16;;;;;;;3.28;2.97;;;7.70;68.50;;;7.12;50.19;94561.75;5047979;28;20227;-83
2021/04/12 03:39:57;;;;;;;5.85;2.92;;;7.70;68.50;;;7.20;50.63;94551.19;5041972;28;20215;-83
2021/04/12 03:43:07;;;;;;;3.22;2.72;;;7.70;68.20;;;7.25;50.61;94559.31;5044236;28;20212;-83
2021/04/12 03:45:52;;;;;;;5.80;3.55;;;7.80;68.60;;;7.35;51.07;94566.88;5046430;28;20204;-85
2021/04/12 03:48:25;;;;;;;4.38;3.35;;;7.90;67.80;;;7.44;50.87;94568.38;5041196;28;20458;-84
2021/04/12 03:51:00;;;;;;;4.25;3.20;;;8.00;68.50;;;7.51;50.98;94566.66;5049298;28;20207;-84
2021/04/12 03:54:01;;;;;;;3.72;2.88;;;7.90;68.80;;;7.60;50.95;94575.22;5060277;28;20246;-84
2021/04/12 03:57:17;;;;;;;4.65;2.80;;;8.00;69.00;;;7.66;50.69;94569.25;5051571;28;20230;-83
2021/04/12 04:00:21;;;;;;;3.60;2.80;;;8.10;68.90;;;7.75;50.60;94571.78;5051537;28;20199;-84
2021/04/12 04:03:30;;;;;;;3.10;2.67;;;8.20;69.00;;;7.84;50.43;94579.31;5030449;28;20231;-84
2021/04/12 04:06:19;;;;;;;3.60;2.80;;;8.20;69.00;;;7.94;50.36;94579.03;5012242;28;20207;-84
2021/04/12 04:09:04;;;;;;;3.35;2.60;;;8.30;68.90;;;8.01;50.55;94582.53;5032337;28;20274;-84
2021/04/12 04:11:52;;;;;;;2.65;2.45;;;8.40;70.10;;;8.08;50.58;94581.78;5032477;28;20726;-84
2021/04/12 04:14:39;;;;;;;4.95;2.70;;;8.60;69.20;;;8.16;50.45;94585.09;5031569;28;20745;-84
2021/04/12 04:17:15;;;;;;;3.55;2.50;;;8.50;68.60;;;8.21;50.45;94575.91;5047083;28;20625;-84
2021/04/12 04:20:13;;;;;;;3.22;2.70;;;8.60;68.10;;;8.30;50.17;94591.28;5044344;28;20612;-84
2021/04/12 04:23:02;;;;;;;3.78;2.70;;;8.60;68.80;;;8.35;50.36;94593.34;5028085;28;20724;-84
2021/04/12 04:26:02;;;;;;;4.80;2.90;;;8.70;68.80;;;8.43;50.30;94595.81;5031850;28;20205;-85
2021/04/12 04:28:47;;;;;;;3.67;2.60;;;8.80;69.00;;;8.50;50.51;94603.75;4999564;28;20229;-85
2021/04/12 04:31:42;;;;;;;4.05;3.00;;;8.90;69.00;;;8.58;50.38;94606.25;5034238;28;20263;-84
2021/04/12 04:34:48;;;;;;;3.25;2.80;;;9.00;69.00;;;8.62;50.26;94606.69;5018804;28;20596;-84
2021/04/12 04:38:22;;;;;;;4.63;2.90;;;8.90;68.60;;;8.73;50.56;94621.09;5052301;28;20224;-84
2021/04/12 04:40:56;;;;;;;3.65;3.25;;;9.00;68.90;;;8.79;50.76;94605.44;5032593;28;20197;-84
2021/04/12 04:43:38;;;;;;;3.08;2.78;;;9.10;68.20;;;8.91;50.64;94608.38;5050287;28;20644;-85
2021/04/12 04:46:33;;;;;;;3.22;2.80;;;9.20;69.20;;;9.02;50.56;94607.03;5033830;28;20204;-85
2021/04/12 04:49:25;;;;;;;4.40;2.90;;;9.20;69.20;;;9.13;50.66;94608.34;5025004;28;20185;-85
2021/04/12 04:52:32;;;;;;;3.28;2.58;;;9.30;69.30;;;9.23;50.63;94606.19;5034946;28;20655;-85
2021/04/12 04:55:30;;;;;;;3.42;2.80;;;9.40;69.20;;;9.35;50.57;94624.78;5012431;28;20232;-84
2021/04/12 04:58:27;;;;;;;4.47;3.20;;;9.50;69.40;;;9.44;51.26;94626.25;5034870;28;20244;-85
2021/04/12 05:01:22;;;;;;;4.55;2.90;;;9.60;69.40;;;9.53;50.72;94637.41;5033394;28;20556;-84
2021/04/12 05:04:44;;;;;;;3.47;2.80;;;9.70;69.40;;;9.63;50.66;94629.19;5053232;28;20204;-85
2021/04/12 05:07:28;;;;;;;2.92;2.63;;;9.80;69.50;;;9.73;51.13;94624.41;5044315;28;20750;-85
2021/04/12 05:10:43;;;;;;;3.65;2.50;;;9.90;69.20;;;9.86;50.97;94630.72;5035665;28;20196;-85
2021/04/12 05:13:16;;;;;;;2.90;2.22;;;10.00;68.10;;;10.00;50.92;94642.06;5051619;28;20303;-85
2021/04/12 05:16:08;;;;;;;3.58;2.75;;;10.10;67.60;;;10.12;50.87;94643.13;5052055;28;20192;-85
2021/04/12 05:19:13;;;;;;;2.92;2.40;;;10.20;68.00;;;10.22;51.32;94637.53;5050818;28;20199;-83
2021/04/12 05:22:14;;;;;;;3.88;2.75;;;10.30;67.80;;;10.31;51.41;94646.03;5006325;28;20216;-84
2021/04/12 05:25:02;;;;;;;3.00;2.67;;;10.40;68.00;;;10.36;51.64;94648.84;5052538;28;20200;-83
2021/04/12 05:28:08;;;;;;;3.05;2.75;;;10.50;68.00;;;10.39;52.07;94654.53;5068932;28;20334;-84
2021/04/12 05:31:24;;;;;;;3.30;3.00;;;10.60;67.80;;;10.41;51.95;94652.53;5010713;28;20375;-84
2021/04/12 05:34:16;;;;;;;3.45;3.00;;;10.70;67.70;;;10.44;51.76;94658.41;5032017;28;20220;-84
2021/04/12 05:36:53;;;;;;;2.92;2.60;;;10.70;67.50;;;10.42;51.85;94650.72;5034684;28;20220;-83
2021/04/12 05:40:12;;;;;;;3.80;3.10;;;10.70;67.70;;;10.45;51.66;94665.25;5048051;28;20459;-84
2021/04/12 05:43:03;;;;;;;5.88;3.40;;;10.80;67.40;;;10.43;52.45;94662.03;5048552;28;20712;-86
2021/04/12 05:46:17;;;;;;;5.55;3.60;;;10.80;67.80;;;10.44;52.46;94661.81;5045266;28;20290;-84
2021/04/12 05:48:55;;;;;;;4.60;3.50;;;10.80;67.80;;;10.48;52.21;94655.16;5045579;28;20196;-84
2021/04/12 05:51:37;;;;;;;6.53;3.95;;;10.90;68.00;;;10.53;52.39;94668.53;5033584;28;20874;-84
2021/04/12 05:54:04;;;;;;;8.65;3.80;;;10.90;68.00;;;10.60;52.87;94676.38;5042404;28;20721;-83
2021/04/12 05:56:49;;;;;;;5.63;4.07;;;10.90;68.10;;;10.69;52.23;94671.78;5036545;28;20217;-85
2021/04/12 05:59:55;;;;;;;7.22;4.70;;;11.00;68.40;;;10.79;52.74;94674.00;5036854;28;20554;-84
2021/04/12 06:02:28;;;;;;;7.68;5.00;;;11.00;68.80;;;10.88;53.78;94678.06;5048128;28;20231;-84
2021/04/12 06:05:04;;;;;;;7.32;5.53;;;11.10;69.00;;;10.97;52.95;94676.06;5048254;28;20183;-84
2021/04/12 06:07:58;;;;;;;8.15;6.55;;;11.20;69.10;;;11.05;53.74;94689.78;5042434;28;20262;-84
2021/04/12 06:11:14;;;;;;;8.70;6.38;;;11.20;69.40;;;11.11;53.65;94692.63;5045525;28;20200;-84
2021/04/12 06:14:23;;;;;;;8.23;6.80;;;11.30;69.30;;;11.12;54.93;94695.06;5056324;28;20192;-84
2021/04/12 06:17:30;;;;;;;10.27;7.35;;;11.40;69.50;;;11.16;54.98;94693.66;5048960;28;20238;-84
2021/04/12 06:20:52;;;;;;;9.32;7.70;;;11.40;69.60;;;11.23;54.82;94691.03;5013731;28;20200;-83
2021/04/12 06:23:36;;;;;;;11.45;9.10;;;11.50;69.60;;;11.25;55.89;94677.72;5024224;28;20232;-83
2021/04/12 06:26:47;;;;;;;12.13;8.80;;;11.60;70.30;;;11.34;55.69;94690.44;5035895;28;20196;-83
2021/04/12 06:30:05;;;;;;;12.38;9.23;;;11.60;70.20;;;11.40;55.19;94699.34;5040767;28;20231;-84
2021/04/12 06:33:00;;;;;;;11.70;8.95;;;11.70;70.30;;;11.43;55.72;94701.53;5046442;28;20220;-84
2021/04/12 06:35:45;;;;;;;10.43;8.70;;;11.70;70.60;;;11.48;55.17;94690.44;5049981;28;20220;-84
2021/04/12 06:38:39;;;;;;;11.95;9.18;;;11.70;70.60;;;11.57;55.16;94693.66;5039487;28;20259;-85
2021/04/12 06:41:39;;;;;;;11.45;8.75;;;11.80;70.20;;;11.66;55.21;94690.63;5026971;28;20658;-84
2021/04/12 06:44:52;;;;;;;10.18;8.75;;;11.90;70.60;;;11.76;54.96;94697.28;5041591;28;20204;-84
2021/04/12 06:47:42;;;;;;;13.02;8.80;;;12.00;70.20;;;11.84;55.32;94703.13;5033210;28;20294;-84
2021/04/12 06:51:25;;;;;;;9.93;8.50;;;12.00;70.40;;;11.91;54.71;94715.44;5029527;28;20224;-84
2021/04/12 06:54:43;;;;;;;11.43;8.95;;;12.10;70.00;;;11.96;54.99;94721.75;4947988;28;20234;-84
2021/04/12 06:57:50;;;;;;;15.05;10.85;;;12.20;69.90;;;11.96;55.12;94724.38;5029938;28;20227;-83
2021/04/12 07:00:47;;;;;;;12.07;10.43;;;12.40;70.20;;;11.97;54.67;94720.75;5031048;28;20207;-83
2021/04/12 07:03:22;;;;;;;13.38;10.15;;;12.30;70.10;;;11.98;55.23;94730.22;5043336;28;20572;-84
2021/04/12 07:06:37;;;;;;;14.57;10.85;;;12.30;70.20;;;11.97;55.11;94725.16;5031391;28;20275;-84
2021/04/12 07:09:22;;;;;;;15.25;10.90;;;12.30;70.10;;;12.01;55.28;94739.50;5031422;28;20662;-83
2021/04/12 07:12:14;;;;;;;16.40;10.98;;;12.40;70.30;;;12.00;55.18;94732.66;5030771;28;20226;-84
2021/04/12 07:14:43;;;;;;;14.75;11.25;;;12.30;70.10;;;12.00;55.25;94732.66;5036017;28;20690;-86
2021/04/12 07:17:47;;;;;;;14.82;11.00;;;12.40;70.30;;;12.06;54.84;94736.28;5052542;28;20637;-86
2021/04/12 07:20:48;;;;;;;15.73;12.30;;;12.30;70.10;;;12.03;55.40;94734.88;5047178;28;20211;-86
2021/04/12 07:23:59;;;;;;;15.20;12.45;;;12.30;70.20;;;12.00;55.36;94743.19;5043797;28;20257;-86
2021/04/12 07:26:56;;;;;;;17.75;13.57;;;12.40;70.10;;;12.04;55.11;94746.19;5033370;28;20207;-86
2021/04/12 07:30:08;;;;;;;15.77;11.85;;;12.30;70.50;;;12.12;55.12;94751.22;5018703;28;20208;-86
2021/04/12 07:33:13;;;;;;;15.00;12.10;;;12.40;70.20;;;12.22;54.84;94748.16;5030282;28;20224;-86
2021/04/12 07:36:26;;;;;;;18.50;13.23;;;12.40;70.60;;;12.34;54.89;94757.06;4990654;28;20360;-87
2021/04/12 07:38:58;;;;;;;16.05;13.15;;;12.50;70.30;;;12.49;55.23;94762.06;5001235;28;20199;-86
2021/04/12 07:41:56;;;;;;;16.23;13.77;;;12.70;71.10;;;12.64;54.92;94762.59;5041440;28;20282;-86
2021/04/12 07:45:22;;;;;;;17.27;13.50;;;12.70;70.80;;;12.76;54.83;94775.94;5038388;28;20301;-86
2021/04/12 07:48:28;;;;;;;15.45;12.05;;;12.80;70.60;;;12.87;54.16;94779.72;5022352;28;20230;-86
2021/04/12 07:51:22;;;;;;;15.27;12.85;;;12.90;70.30;;;12.92;53.78;94787.00;5039982;28;20243;-87
2021/04/12 07:54:27;;;;;;;17.27;13.27;;;13.00;70.20;;;13.03;53.68;94796.88;5038694;28;20205;-86
2021/04/12 07:57:47;;;;;;;16.98;12.85;;;13.10;70.20;;;13.05;53.58;94810.66;5038346;28;20226;-87
2021/04/12 08:01:01;;;;;;;14.50;11.82;;;13.20;69.90;;;13.04;53.39;94814.28;5045911;28;20211;-86
2021/04/12 08:03:48;;;;;;;17.15;12.30;;;13.20;69.60;;;13.02;53.45;94812.88;5016369;28;20433;-86
2021/04/12 08:07:09;;;;;;;13.20;11.50;;;13.30;69.70;;;13.04;53.64;94819.56;5051534;28;20207;-86
2021/04/12 08:09:42;;;;;;;14.32;11.60;;;13.30;69.60;;;13.14;53.40;94824.38;5052657;28;20295;-86
2021/04/12 08:13:16;;;;;;;16.67;12.77;;;13.30;69.80;;;13.22;53.23;94832.03;5067497;28;20224;-86
2021/04/12 08:16:26;;;;;;;15.75;12.13;;;13.40;69.60;;;13.30;53.26;94833.63;5040796;28;20258;-86
2021/04/12 08:19:09;;;;;;;17.48;14.02;;;13.40;69.60;;;13.26;53.21;94841.13;5046064;28;20739;-85
2021/04/12 08:22:21;;;;;;;18.65;13.75;;;13.50;69.50;;;13.18;52.75;94830.03;5043711;28;20219;-86
2021/04/12 08:25:14;;;;;;;16.13;14.43;;;13.50;69.30;;;13.04;53.23;94832.72;5046334;28;20199;-86
2021/04/12 08:28:19;;;;;;;15.20;13.50;;;13.40;69.10;;;13.05;53.16;94833.53;5041878;28;20219;-85
2021/04/12 08:31:28;;;;;;;16.65;14.30;;;13.40;69.10;;;12.99;53.08;94837.81;5046007;28;20206;-86
2021/04/12 08:34:46;;;;;;;16.20;14.50;;;13.30;69.20;;;12.89;53.28;94833.00;5026657;28;20206;-87
2021/04/12 08:37:56;;;;;;;15.00;13.20;;;13.30;69.10;;;13.01;53.12;94837.59;5061199;28;20563;-86
2021/04/12 08:41:04;;;;;;;16.20;13.73;;;13.30;69.20;;;13.07;52.88;94845.47;5059567;28;20265;-86
2021/04/12 08:44:05;;;;;;;18.35;15.52;;;13.30;69.30;;;13.10;52.83;94841.63;5018264;28;20216;-85
2021/04/12 08:47:02;;;;;;;18.42;15.68;;;13.30;69.30;;;13.11;52.88;94848.50;5035202;28;20222;-85
2021/04/12 08:49:58;;;;;;;15.25;13.55;;;13.30;69.10;;;13.22;53.00;94847.03;5029741;28;20406;-86
2021/04/12 08:53:03;;;;;;;14.05;12.48;;;13.30;69.30;;;13.36;52.59;94850.41;5032514;28;20718;-86
2021/04/12 08:55:31;;;;;;;19.30;15.60;;;13.50;69.30;;;13.44;52.55;94855.47;5027469;28;20749;-85
2021/04/12 08:58:14;;;;;;;17.80;15.27;;;13.40;69.30;;;13.41;52.33;94863.78;5031171;28;20220;-84
2021/04/12 09:01:01;;;;;;;15.63;13.93;;;13.50;68.90;;;13.39;52.27;94856.09;5026546;28;20662;-84
2021/04/12 09:04:05;;;;;;;16.58;14.52;;;13.50;69.00;;;13.37;52.46;94867.84;5048127;28;20224;-85
2021/04/12 09:07:21;;;;;;;17.88;15.55;;;13.60;68.90;;;13.29;52.48;94864.44;5031019;28;20273;-84
2021/04/12 09:10:38;;;;;;;19.08;15.88;;;13.60;68.70;;;13.30;52.53;94859.94;5030380;28;20228;-83
2021/04/12 09:13:14;;;;;;;17.70;15.80;;;13.60;69.00;;;13.32;52.70;94857.09;5033383;28;20216;-84
2021/04/12 09:16:05;;;;;;;18.23;16.25;;;13.50;68.90;;;13.35;52.49;94865.41;5033397;28;20219;-84
2021/04/12 09:19:11;;;;;;;19.27;16.08;;;13.60;69.00;;;13.37;52.49;94860.72;5036609;28;20212;-84
2021/04/12 09:22:05;;;;;;;18.35;16.35;;;13.60;68.90;;;13.46;52.50;94866.59;5069086;28;20735;-84
2021/04/12 09:25:11;;;;;;;19.70;17.60;;;13.60;69.20;;;13.48;52.34;94866.41;5029747;28;20559;-85
2021/04/12 09:28:25;;;;;;;19.25;17.15;;;13.60;69.00;;;13.44;52.55;94874.72;5056556;28;20255;-85
2021/04/12 09:31:14;;;;;;;20.88;18.25;;;13.60;69.00;;;13.38;52.46;94866.84;5038000;28;20199;-83
2021/04/12 09:34:22;;;;;;;20.15;17.70;;;13.70;68.80;;;13.33;52.43;94871.91;5033017;28;20180;-84
2021/04/12 09:37:40;;;;;;;18.60;16.60;;;13.60;69.00;;;13.25;52.52;94883.50;5039773;28;20222;-84
2021/04/12 09:40:42;;;;;;;20.17;15.65;;;13.60;68.70;;;13.23;52.41;94886.34;5031613;28;20211;-84
2021/04/12 09:43:39;;;;;;;20.85;17.30;;;13.60;68.70;;;13.23;52.53;94899.50;5023203;28;20728;-84
2021/04/12 09:46:49;;;;;;;19.67;16.25;;;13.50;68.80;;;13.29;52.30;94906.56;5031910;28;20211;-84
2021/04/12 09:49:58;;;;;;;18.25;15.95;;;13.50;68.80;;;13.31;52.51;94903.72;5031096;28;20189;-84
2021/04/12 09:53:08;;;;;;;17.98;15.95;;;13.60;68.80;;;13.33;52.46;94904.34;5030775;28;20220;-84
2021/04/12 09:56:09;;;;;;;17.52;15.18;;;13.60;69.00;;;13.33;52.47;94909.59;5031315;28;20211;-85
2021/04/12 09:59:18;;;;;;;15.95;14.27;;;13.60;68.90;;;13.37;52.16;94918.69;5047549;28;20279;-84
2021/04/12 10:02:19;;;;;;;15.88;13.85;;;13.60;68.60;;;13.39;52.12;94915.88;5016047;28;20212;-84
2021/04/12 10:05:16;;;;;;;17.58;14.90;;;13.60;68.80;;;13.34;51.85;94926.19;5046962;28;20227;-84
2021/04/12 10:08:19;;;;;;;15.65;13.98;;;13.60;68.40;;;13.26;51.77;94935.16;5052306;28;20708;-84
2021/04/12 10:11:04;;;;;;;16.10;14.27;;;13.60;68.40;;;13.17;52.15;94933.75;5053067;28;20602;-85
2021/04/12 10:14:03;;;;;;;14.30;12.57;;;13.50;68.20;;;13.01;52.03;94935.00;5033732;28;20269;-84
2021/04/12 10:16:34;;;;;;;15.43;12.68;;;13.50;68.20;;;12.93;51.96;94936.06;5051991;28;20223;-83
2021/04/12 10:19:21;;;;;;;16.40;13.07;;;13.40;68.20;;;12.82;52.31;94929.59;5051013;28;20175;-83
2021/04/12 10:22:10;;;;;;;14.85;13.35;;;13.30;68.10;;;12.67;52.32;94942.97;5029212;28;20705;-84
2021/04/12 10:24:57;;;;;;;16.05;13.23;;;13.20;68.10;;;12.58;52.43;94952.06;5032045;28;20188;-84
2021/04/12 10:27:48;;;;;;;14.88;12.05;;;13.20;68.30;;;12.50;52.39;94942.59;5031961;28;20255;-84
2021/04/12 10:30:33;;;;;;;14.02;12.50;;;13.20;68.50;;;12.48;52.62;94944.59;5015203;28;20578;-84
2021/04/12 10:33:07;;;;;;;12.60;11.27;;;13.00;68.40;;;12.46;52.61;94955.31;5015491;28;20223;-84
2021/04/12 10:35:44;;;;;;;14.60;12.52;;;12.90;68.40;;;12.44;52.58;94970.50;4999268;28;20587;-84
2021/04/12 10:38:25;;;;;;;14.63;12.63;;;12.90;68.50;;;12.42;52.57;94969.88;5038907;28;20218;-84
2021/04/12 10:41:22;;;;;;;16.27;13.27;;;12.80;68.40;;;12.28;52.51;94978.75;5030782;28;20433;-82
2021/04/12 10:44:18;;;;;;;16.95;14.70;;;12.80;68.50;;;12.13;52.87;94992.09;5052227;28;20200;-84
2021/04/12 10:47:27;;;;;;;15.30;13.25;;;12.70;68.50;;;11.97;52.92;95001.16;5033715;28;20230;-84
2021/04/12 10:50:14;;;;;;;15.65;13.13;;;12.60;68.50;;;11.80;53.22;95004.13;5050592;28;20294;-84
2021/04/12 10:52:53;;;;;;;16.58;13.43;;;12.50;68.50;;;11.66;53.42;95007.72;5051963;28;20226;-85
2021/04/12 10:55:29;;;;;;;17.17;13.93;;;12.30;68.50;;;11.56;53.69;95007.25;5051784;28;20219;-84
2021/04/12 10:58:27;;;;;;;18.65;15.20;;;12.30;68.60;;;11.38;53.72;95000.72;5048921;28;20742;-85
2021/04/12 11:01:04;;;;;;;17.30;13.35;;;12.10;68.60;;;11.24;53.83;95012.13;5048009;28;20206;-84
2021/04/12 11:04:04;;;;;;;17.63;14.23;;;12.00;68.80;;;11.03;54.18;95008.56;5017036;28;20226;-85
2021/04/12 11:07:14;;;;;;;15.85;13.07;;;11.80;68.60;;;10.83;54.26;95011.06;5050595;28;20234;-84
2021/04/12 11:09:59;;;;;;;14.75;12.82;;;11.70;68.70;;;10.70;54.89;95015.19;5034332;28;20224;-85
2021/04/12 11:12:54;;;;;;;15.57;12.82;;;11.50;69.00;;;10.56;54.68;95018.75;5039464;28;20227;-85
2021/04/12 11:15:35;;;;;;;13.65;12.00;;;11.40;69.10;;;10.51;54.51;95029.78;5019607;28;20224;-84
2021/04/12 11:18:27;;;;;;;17.40;13.90;;;11.30;69.30;;;10.41;54.94;95037.97;5030148;28;20213;-84
2021/04/12 11:21:12;;;;;;;16.38;14.00;;;11.20;69.40;;;10.30;55.27;95048.94;5023355;28;20197;-84
2021/04/12 11:24:15;;;;;;;20.88;18.60;;;11.00;69.40;;;10.08;55.94;95055.94;5038248;28;20200;-83
2021/04/12 11:27:22;;;;;;;22.38;19.80;;;10.90;69.90;;;9.82;56.44;95057.25;5046048;28;20707;-82
2021/04/12 11:30:14;;;;;;;21.98;18.17;;;10.70;69.80;;;9.59;56.59;95070.47;5047619;28;20236;-83
2021/04/12 11:33:12;;;;;;;25.95;21.58;;;10.60;69.80;;;9.43;56.41;95066.25;5058381;28;20230;-84
2021/04/12 11:36:33;;;;;;;23.63;21.02;;;10.40;70.20;;;9.22;57.28;95086.06;5052908;28;20212;-84
2021/04/12 11:39:05;;;;;;;22.15;18.95;;;10.20;70.20;;;9.06;58.29;95081.03;5033056;28;20196;-84
2021/04/12 11:41:44;;;;;;;19.55;16.70;;;10.10;70.50;;;8.99;57.14;95082.72;5029770;28;20219;-84
2021/04/12 11:44:26;;;;;;;20.55;16.88;;;9.90;71.80;;;8.90;57.52;95095.88;5052499;28;20279;-84
2021/04/12 11:47:27;;;;;;;21.85;17.10;;;9.80;72.10;;;8.84;57.57;95099.19;5061810;28;20223;-82
2021/04/12 11:50:36;;;;;;;19.45;15.52;;;9.60;71.90;;;8.79;57.40;95104.13;5049573;28;20227;-83
2021/04/12 11:53:19;;;;;;;20.40;15.75;;;9.60;72.10;;;8.73;58.03;95102.22;5026760;28;20225;-83
2021/04/12 11:56:10;;;;;;;19.90;15.82;;;9.50;72.40;;;8.60;58.32;95106.22;5049619;28;20270;-83
2021/04/12 11:58:54;;;;;;;18.17;14.40;;;9.40;72.30;;;8.49;58.30;95104.00;5045417;28;20214;-83
2021/04/12 12:01:50;;;;;;;16.92;12.55;;;9.30;72.60;;;8.39;58.29;95113.88;5023571;28;20224;-83
2021/04/12 12:04:46;;;;;;;16.38;13.05;;;9.20;72.50;;;8.33;58.15;95117.97;5032792;28;20197;-83
2021/04/12 12:07:33;;;;;;;13.57;11.23;;;9.10;72.50;;;8.30;57.82;95116.53;5046914;28;20230;-83
2021/04/12 12:10:15;;;;;;;13.25;10.38;;;9.10;72.70;;;8.25;57.92;95121.47;5050645;28;20200;-83
2021/04/12 12:13:10;;;;;;;14.15;9.90;;;9.00;72.70;;;8.19;58.07;95124.75;5039426;28;20331;-83
2021/04/12 12:16:19;;;;;;;15.65;8.80;;;8.90;72.70;;;8.05;57.81;95122.88;5051381;28;20728;-84
2021/04/12 12:19:15;;;;;;;12.10;8.70;;;8.90;72.80;;;7.92;58.74;95131.22;5025732;28;20200;-85
2021/04/12 12:22:17;;;;;;;9.57;7.40;;;8.70;73.00;;;7.81;58.75;95135.03;5055158;28;20212;-84